Flight Track Log - Related Links

Times and Time Zones

All times are in EDT time to prevent confusion due to time zone crossing. See the DAL3698 flight status page for this flight to view local times or setup timezone preferences in your user account.

Time Position Orientation Groundspeed Altitude Reporting Facility
EDT Latitude Longitude Course Direction KTS MPH feet Rate Location/Type
Sun 07:27:39 AM 42.7800 -84.6939 279° West 195 224 3,200  Level Chicago Center
Sun 07:28:40 AM 42.7814 -84.7819 271° West 230 265 5,300 2,281 Climbing Chicago Center
Sun 07:29:00 AM 42.7494 -85.0966 283° West  Level FlightAware Approximate
Sun 07:29:40 AM 42.7825 -84.8883 271° West 271 312 7,800  Level Chicago Center
Sun 07:30:00 AM 42.7601 -85.2308 276° West  Level FlightAware Approximate
Sun 07:30:41 AM 42.7836 -85.0194 271° West 288 331 10,700  Level Chicago Center
Sun 07:31:00 AM 42.7715 -85.3649 278° West  Level FlightAware Approximate
Sun 07:31:42 AM 42.7853 -85.1444 271° West 322 371 12,100  Level Chicago Center
Sun 07:32:00 AM 42.7845 -85.4932 279° West  Level FlightAware Approximate
Sun 07:32:42 AM 42.7858 -85.2761 270° West 343 395 14,000  Level Chicago Center
Sun 07:33:00 AM 42.7996 -85.6211 279° West  Level FlightAware Approximate
Sun 07:33:43 AM 42.7864 -85.4119 270° West 354 407 15,400  Level Chicago Center
Sun 07:34:44 AM 42.7939 -85.5514 274° West 370 426 16,800 1,426 Climbing Chicago Center
Sun 07:35:45 AM 42.8125 -85.6944 280° West 379 436 18,300 1,438 Climbing Chicago Center
Sun 07:36:45 AM 42.8317 -85.8406 280° West 386 444 19,700 1,388 Climbing Chicago Center
Sun 07:37:46 AM 42.8497 -85.9872 280° West 386 444 21,100 1,180 Climbing Chicago Center
Sun 07:38:47 AM 42.8686 -86.1386 280° West 398 458 22,100 1,033 Climbing Chicago Center
Sun 07:39:48 AM 42.8889 -86.2897 280° West 400 460 23,200 893 Climbing Chicago Center
Sun 07:40:48 AM 42.9069 -86.4406 279° West 402 463 23,900 843 Climbing Chicago Center
Sun 07:41:49 AM 42.9261 -86.5942 280° West 406 467 24,900 984 Climbing Chicago Center
Sun 07:42:50 AM 42.9442 -86.7483 279° West 410 472 25,900 984 Climbing Chicago Center
Sun 07:43:51 AM 42.9625 -86.9000 279° West 406 467 26,900 984 Climbing Chicago Center
Sun 07:44:52 AM 42.9797 -87.0508 279° West 402 463 27,900 545 Climbing Chicago Center
Sun 07:45:52 AM 42.9975 -87.2056 279° West 411 473 28,000 50 Climbing Chicago Center
Sun 07:46:53 AM 43.0475 -87.3547 295° West 429 494 28,000  Level Chicago Center
Sun 07:47:54 AM 43.1125 -87.5139 299° West 448 516 28,000 -49 Level Chicago Center
Sun 07:48:55 AM 43.1736 -87.6633 299° West 449 517 27,900 -49 Descending Chicago Center
Sun 07:49:56 AM 43.2356 -87.8183 299° West 461 531 27,900  Level Chicago Center
Sun 07:50:57 AM 43.2986 -87.9697 300° West 458 527 27,900  Level Chicago Center
Sun 07:51:58 AM 43.3589 -88.1178 299° West 447 514 27,900 49 Level Chicago Center
Sun 07:52:59 AM 43.4183 -88.2667 299° West 446 513 28,000  Climbing Chicago Center
Sun 07:53:59 AM 43.4842 -88.4314 299° West 443 510 27,900  Descending Chicago Center
Sun 07:55:01 AM 43.5442 -88.5789 299° West 444 511 28,000 49 Climbing Chicago Center
Sun 07:56:01 AM 43.5997 -88.7236 298° West 433 498 28,000 -50 Level Chicago Center
Sun 07:57:02 AM 43.6567 -88.8689 298° West 431 496 27,900  Descending Chicago Center
Sun 07:58:03 AM 43.7142 -89.0136 299° West 429 494 28,000  Climbing Chicago Center
Sun 07:59:04 AM 43.7700 -89.1589 298° West 428 493 27,900  Descending Chicago Center
Sun 08:00:05 AM 43.8269 -89.3047 298° West 430 495 28,000  Climbing Chicago Center
Sun 08:01:06 AM 43.8828 -89.4494 298° West 426 490 27,900  Descending Chicago Center
Sun 08:02:07 AM 43.9381 -89.5936 298° West 424 488 28,000 49 Climbing Chicago Center
Sun 08:03:08 AM 43.9919 -89.7381 297° West 421 484 28,000  Level Chicago Center
Sun 08:04:09 AM 44.0606 -89.9028 300° West 421 484 28,000  Level Chicago Center
Sun 08:05:10 AM 44.1211 -90.0417 301° West 420 483 28,000 -738 Level Chicago Center
Sun 08:06:11 AM 44.1808 -90.1814 301° West 420 483 26,500 -1,463 Descending Chicago Center
Sun 08:07:13 AM 44.2358 -90.3150 300° West 418 481 25,000 -1,220 Descending Chicago Center
Sun 08:08:14 AM 44.2950 -90.4503 301° West 414 476 24,000 -492 Descending Chicago Center
Sun 08:09:15 AM 44.3525 -90.5853 301° West 409 471 24,000  Level Chicago Center
Sun 08:10:16 AM 44.4081 -90.7189 300° West 405 466 24,000  Level Chicago Center
Sun 08:11:17 AM 44.4639 -90.8542 300° West 405 466 24,000  Level Chicago Center
Sun 08:12:18 AM 44.5314 -91.0131 301° West 401 461 24,000  Level Chicago Center
Sun 08:13:19 AM 44.5864 -91.1464 300° West 399 459 24,000  Level Chicago Center
Sun 08:14:20 AM 44.6422 -91.2814 300° West 403 464 24,000 -48 Level Chicago Center
Sun 08:15:24 AM 44.7039 -91.4300 300° West 400 460 23,900 -624 Descending Minneapolis Center
Sun 08:16:25 AM 44.7592 -91.5667 300° West 402 463 22,700 -1,721 Descending Minneapolis Center
Sun 08:17:26 AM 44.8142 -91.7011 300° West 401 461 20,400 -2,213 Descending Minneapolis Center
Sun 08:18:27 AM 44.8622 -91.8203 300° West 368 423 18,200 -2,182 Descending Minneapolis Center
Sun 08:19:27 AM 44.9103 -91.9386 300° West 352 405 16,000 -2,083 Descending Minneapolis Center
Sun 08:20:28 AM 44.9575 -92.0575 299° West 351 404 14,000 -1,918 Descending Minneapolis Center
Sun 08:21:29 AM 45.0039 -92.1725 300° West 339 390 12,100 -1,475 Descending Minneapolis Center
Sun 08:22:30 AM 45.0472 -92.2817 299° West 324 373 11,000 -595 Descending Minneapolis Center
Sun 08:23:30 AM 45.0336 -92.4078 261° West 333 383 10,900 -50 Descending Minneapolis Center
Sun 08:24:31 AM 45.0111 -92.5356 256° West 336 387 10,900  Level Minneapolis Center
Sun 08:25:32 AM 44.9906 -92.6631 257° West 336 387 10,900  Level Minneapolis Center
Sun 08:26:33 AM 44.9661 -92.8156 257° West 334 384 10,900  Level Minneapolis Center
Sun 08:27:34 AM 44.9456 -92.9422 257° West 332 382 10,900 -590 Level Minneapolis Center
Sun 08:28:35 AM 44.9281 -93.0503 257° West 285 328 9,700 -1,488 Descending Minneapolis Center
Sun 08:29:35 AM 44.9589 -93.1453 295° West 276 318 7,900 -1,636 Descending Minneapolis Center
Sun 08:30:36 AM 44.9944 -93.2311 300° West 253 291 6,400 -984 Descending Minneapolis Center
Sun 08:31:37 AM 45.0297 -93.3047 304° West 230 265 5,900 -787 Descending Minneapolis Center
Sun 08:32:38 AM 45.0361 -93.3786 277° West 220 253 4,800 -984 Descending Minneapolis Center
Sun 08:33:39 AM 44.9844 -93.3764 178° South 206 237 3,900 -738 Descending Minneapolis Center
Sun 08:34:40 AM 44.9431 -93.3364 146° Southeast 179 206 3,300 -595 Descending Minneapolis Center
Sun 08:35:40 AM 44.9222 -93.2861 120° Southeast 148 170 2,700 -600 Descending Minneapolis Center

Login

Don't have an account? Register now (free) for customized features, flight alerts, and more!